My Meet Scores
Shannon Fitzpatrick, Infinity - MyMeetScores.com
Top100 | Top Teams | Upcoming Meets | Completed Meets | Latest | Add Scores | Help| Support | Bookmark and Share

Shannon Fitzpatrick, Infinity
Personal Bests
LevelVault BarsBeamFloorAA
39.7009.400 8.3509.15035.450
49.4509.325 9.3009.42537.325
59.2009.250 9.5259.35037.100
69.5509.300 9.4009.35036.650
79.3009.100 9.3759.32536.650
Meet Scores
Date Meet Team Session Level Division Vault Bars Beam Floor AA
2019-04-13 Get Ready for States Infinity 4 7 All 9.300 1 9.100 1 8.750 1 9.225 2 36.375 1
2019-03-29 Peace Love Gymnastics Invitational Infinity 7 7 Older 9.050 7T 9.075 6 9.200 18T 9.125 31 36.450 8
2019-03-08 2019 NYS Level 7 & 8 State Championship Infinity 02 7 Sr A 8.700 11T 8.800 8 9.000 6 9.300 10 35.800 5
2019-03-01 Flippin' Into Spring 2019 Infinity 9 7 Senior 8.850 6 9.100 2 9.375 2 9.325 3 36.650 2
2019-02-16 2019 Snowflake Invitational Infinity 4 7 Older 8.650 7 8.500 3 9.350 1 8.825 3 35.325 2
2019-02-08 Florida in February Infinity 1 7 Older 8.850 3 9.000 4 8.800 7 9.025 10T 35.675 4
2019-01-25 Kinetic Kids Invitational 2019 Infinity 7 7 Younger 8.300 12 8.700 6 8.650 5 8.850 11 34.500 7
2019-01-11 2019 New Years Blast Infinity 5 7 Intermediate 7.950 11 8.950 2 8.800 5 9.000 4 34.700 5
2018-04-19 New York State Championships Level 5/6 Infinity 03 6 Jr G 8.775 11 8.950 5T 9.000 10 9.025 16 35.750 8T
2018-04-13 Get Ready For States Infinity 4 6 older 9.200 2 8.825 6 9.025 4 9.350 5T 36.400 2
2018-03-24 Peace Love Gymnastics Invitational Infinity 8 6 Older 9.225 2 9.100 1 8.750 10 9.175 2 36.250 1
2018-03-09 Flippin' Into Spring Infinity 7 6 Older 9.450 1 8.800 7 9.350 5T 9.050 11T 36.650 1T
2018-02-24 2018 Harlem Invitational Infinity 4 6 All Ages 8.500 7T 8.850 3T 9.325 2 9.100 2T 35.775 3T
2018-02-17 Snowflake Invitational Infinity 4 6 Older 8.700 12T 8.550 5T 9.400 4 9.325 3T 35.975 4
2018-01-12 New Year Celebration Infinity 02 6 12 up 9.200 1 8.725 3 8.875 7T 9.175 1 35.975 2
2017-12-01 Kick Off Classic Infiniti 8 6 Junior 9.350 1 8.050 11 8.900 7 9.000 10 35.300 9
2017-05-12 2017 New York Level 5 & 6 State Championships Infiniti 6-3 6 Jr A 9.100 13 9.000 3 8.550 24 9.350 13 36.000 13
2017-04-07 Get Ready For States Infiniti 4 6 CH 9.275 4 9.000 5 9.025 6 9.300 7T 36.600 5
2017-03-24 Princess Classic 2017 Infiniti 3 6 Jr. 9.550 4 8.475 8 9.000 2 9.200 9 36.225 4
2017-03-11 World Class Spring Challenge Infiniti 2 6 Ch 8.925 8.675 8.550 9.000 35.150
2017-02-24 Mardi Gras Invitational Infiniti 1 6 Middle 9.100 5 9.250 1 9.250 1 8.650 6 36.250 2
2017-02-18 Snowflake Invitational Infiniti 7 6 Middle 9.075 4 8.600 2 9.275 2 9.075 2 36.025 2
2017-02-10 I Love NY Cup Infiniti 7B 6 7B Senior 9.250 4 9.300 1 9.150 4 8.950 6 36.650 4
2017-01-13 New York Celebration Infiniti 05 6 Middle 9.250 2T 8.800 2T 8.675 11 8.950 6T 35.675 7
2016-05-13 2016 New York Level 5 & 6 State Championship Infiniti 3 5 Jr A 8.975 12 8.725 7 8.475 12 8.750 13 34.925 11
2016-02-26 2016 February Flip Dutchess County Gymnastics Center 9 5 10-11 yr o 9.050 4 9.250 2T 9.100 11 8.050 18 35.450 9
2016-02-12 Sweetheart Invitational Dutchess County Gymnastics Center 05 5 Jr B 9.025 3 9.200 1T 9.525 2 9.350 6T 37.100 1
2016-01-29 Team Challenge 2016 Dutchess County Gymnastics Center 3B 5 Junior 8.750 5 8.450 5T 8.200 15 8.750 17 34.150 10
2016-01-08 Hudson Valley Winter Classic Dutchess County Gymnastics Center 8 5 Younger 8.950 8T 8.250 13 8.600 10 8.800 8 34.600 11
2015-11-21 2015 Balloon Classic Dutchess County Gymnastics Center 6 5 10+ 9.200 3T 8.300 7 7.750 12 8.725 9 33.975 8
2015-04-17 Flower Festival Dutchess County Gymnastics Center 08 4 Jr A 9.450 2 9.325 5 9.300 3T 9.250 4T 37.325 2
2015-03-06 Heartland Spring Classic Dutchess County Gymnastics Center 11A 4 child 8.700 3T 8.400 7 8.300 9T 9.150 4 34.550 6
2015-02-20 2015 February Flip Invitational Dutchess County Gymnastics Center 7 4 9 & under 8.700 14 8.875 5 9.100 7T 9.400 1T 36.075 6
2015-02-06 Sweetheart Invitational Dutchess County Gymnastics Center 4 4 Jr B 9.000 2T 9.150 2T 8.625 7 9.100 5T 35.875 2
2015-01-09 Hudson Valley Winter Classic Dutchess County Gymnastics Center 7 4 Jr B 9.050 2 8.800 6 8.950 6T 9.425 1T 36.225 2
2014-04-25 Flower Festival Dutchess County Gymnastics Center 3 3 All Ages 9.100 19T 8.900 31T 7.700 67 9.150 46T 34.850 48
2014-03-07 Heartland Spring Classic Dutchess County Gymnastics Center 5B 3 8 9.700 2T 9.400 1 7.700 9 8.650 8 35.450 8
2014-02-21 2014 February Flip Invitational Dutchess County Gymnastics Center 6 3 8 yr old 9.000 6T 8.000 14 8.350 17 8.300 12T 33.650 13
2014-01-31 Team Challenge 2014 Dutchess County Gymnastics Center 8B 3 Junior 8.600 23T 7.500 27T 7.450 26T 7.800 28 31.350 27
2014-01-10 Hudson Valley Winter Classic Dutchess County Gymnastics Center 4 3 7 & Below 8.550 7 6.000 9T 7.250 8T 8.100 6T 29.900 8
Click here to view our personalized
"Celebrate Your Season"
2018-19 Collection

www.lazysuits.com